createdAt,value
2019-04-27T00:00:00.806Z,951
2019-04-27T00:03:08.669Z,951
2019-04-27T00:06:14.841Z,950.9
2019-04-27T00:09:22.415Z,950.8
2019-04-27T00:12:28.998Z,950.9
2019-04-27T00:15:37.621Z,950.8
2019-04-27T00:18:54.757Z,950.8
2019-04-27T00:22:04.391Z,950.8
2019-04-27T00:25:10.568Z,950.8
2019-04-27T00:28:18.677Z,950.8
2019-04-27T00:31:24.790Z,950.7
2019-04-27T00:34:30.999Z,950.7
2019-04-27T00:37:38.873Z,950.7
2019-04-27T00:40:45.062Z,950.7
2019-04-27T00:43:51.226Z,950.7
2019-04-27T00:46:58.838Z,950.7
2019-04-27T00:50:05.009Z,950.7
2019-04-27T00:53:11.118Z,950.7
2019-04-27T00:56:19.059Z,950.8
2019-04-27T00:59:25.282Z,950.8
2019-04-27T01:02:31.407Z,950.7
2019-04-27T01:05:40.941Z,950.7
2019-04-27T01:08:48.649Z,950.7
2019-04-27T01:11:54.912Z,950.7
2019-04-27T01:15:01.029Z,950.6
2019-04-27T01:18:16.193Z,950.5
2019-04-27T01:21:23.891Z,950.5
2019-04-27T01:24:31.692Z,950.5
2019-04-27T01:27:39.908Z,950.5
2019-04-27T01:30:46.227Z,950.5
2019-04-27T01:33:53.965Z,950.4
2019-04-27T01:37:02.987Z,950.4
2019-04-27T01:40:10.969Z,950.5
2019-04-27T01:43:18.615Z,950.4
2019-04-27T01:46:24.792Z,950.5
2019-04-27T01:49:30.999Z,950.4
2019-04-27T01:52:39.053Z,950.4
2019-04-27T01:55:45.219Z,950.4
2019-04-27T01:58:56.356Z,950.4
2019-04-27T02:02:04.459Z,950.4
2019-04-27T02:05:12.312Z,950.3
2019-04-27T02:08:20.219Z,950.3
2019-04-27T02:11:26.346Z,950.3
2019-04-27T02:14:34.339Z,950.3
2019-04-27T02:17:40.625Z,950.3
2019-04-27T02:20:50.465Z,950.2
2019-04-27T02:23:56.587Z,950.2
2019-04-27T02:27:04.749Z,950.2
2019-04-27T02:30:13.006Z,950.3
2019-04-27T02:33:21.568Z,950.4
2019-04-27T02:36:30.226Z,950.3
2019-04-27T02:39:36.778Z,950.3
2019-04-27T02:42:45.446Z,950.3
2019-04-27T02:45:54.974Z,950.3
2019-04-27T02:49:10.443Z,950.3
2019-04-27T02:52:16.781Z,950.2
2019-04-27T02:55:25.450Z,950.1
2019-04-27T02:58:34.435Z,950.1
2019-04-27T03:01:50.206Z,950.1
2019-04-27T03:05:01.930Z,950
2019-04-27T03:08:11.321Z,950
2019-04-27T03:11:20.481Z,950.1
2019-04-27T03:12:11.211Z,950
2019-04-27T03:15:17.556Z,950.1
2019-04-27T03:18:33.802Z,950.1
2019-04-27T03:21:42.199Z,950
2019-04-27T03:24:50.944Z,950
2019-04-27T03:27:57.328Z,950
2019-04-27T03:31:12.451Z,949.9
2019-04-27T03:34:24.458Z,949.9
2019-04-27T03:37:31.542Z,949.9
2019-04-27T03:40:40.059Z,950
2019-04-27T03:43:46.465Z,949.9
2019-04-27T03:46:55.255Z,949.9
2019-04-27T03:50:03.885Z,949.8
2019-04-27T03:53:11.618Z,949.9
2019-04-27T03:56:19.798Z,949.8
2019-04-27T03:59:26.211Z,949.9
2019-04-27T04:02:37.024Z,949.9
2019-04-27T04:05:45.893Z,950
2019-04-27T04:08:56.374Z,949.9
2019-04-27T04:12:05.248Z,949.9
2019-04-27T04:15:14.016Z,949.9
2019-04-27T04:18:20.853Z,949.9
2019-04-27T04:21:29.446Z,949.9
2019-04-27T04:24:36.160Z,949.9
2019-04-27T04:27:44.673Z,949.9
2019-04-27T04:30:51.453Z,949.8
2019-04-27T04:34:00.224Z,949.8
2019-04-27T04:37:06.464Z,949.8
2019-04-27T04:40:14.958Z,949.8
2019-04-27T04:43:21.328Z,949.7
2019-04-27T04:46:30.405Z,949.8
2019-04-27T04:49:36.724Z,949.8
2019-04-27T04:52:45.180Z,949.8
2019-04-27T04:55:51.516Z,949.7
2019-04-27T04:58:59.675Z,949.8
2019-04-27T05:02:06.243Z,949.8
2019-04-27T05:05:12.441Z,949.7
2019-04-27T05:08:20.264Z,949.8
2019-04-27T05:11:26.670Z,949.8
2019-04-27T05:14:34.654Z,949.7
2019-04-27T05:17:41.119Z,949.8
2019-04-27T05:20:49.169Z,949.8
2019-04-27T05:23:55.300Z,949.8
2019-04-27T05:27:01.682Z,949.8
2019-04-27T05:30:09.922Z,949.8
2019-04-27T05:33:16.056Z,949.8
2019-04-27T05:36:24.346Z,949.8
2019-04-27T05:39:31.234Z,949.7
2019-04-27T05:42:37.606Z,949.7
2019-04-27T05:45:45.456Z,949.7
2019-04-27T05:48:53.193Z,949.6
2019-04-27T05:52:00.600Z,949.7
2019-04-27T05:55:06.862Z,949.7
2019-04-27T05:58:15.747Z,949.8
2019-04-27T06:01:22.066Z,949.7
2019-04-27T06:04:30.170Z,949.7
2019-04-27T06:07:36.435Z,949.6
2019-04-27T06:10:44.548Z,949.7
2019-04-27T06:13:50.813Z,949.6
2019-04-27T06:16:57.079Z,949.6
2019-04-27T06:20:05.354Z,949.6
2019-04-27T06:23:11.765Z,949.6
2019-04-27T06:26:19.976Z,949.5
2019-04-27T06:29:26.345Z,949.5
2019-04-27T06:32:34.359Z,949.5
2019-04-27T06:35:43.424Z,949.5
2019-04-27T06:38:49.805Z,949.4
2019-04-27T06:41:56.020Z,949.5
2019-04-27T06:45:06.283Z,949.5
2019-04-27T06:48:14.338Z,949.5
2019-04-27T06:51:20.799Z,949.4
2019-04-27T06:54:28.586Z,949.5
2019-04-27T06:57:35.136Z,949.4
2019-04-27T07:00:41.310Z,949.4
2019-04-27T07:03:49.262Z,949.5
2019-04-27T07:06:59.422Z,949.5
2019-04-27T07:10:09.276Z,949.4
2019-04-27T07:13:15.485Z,949.3
2019-04-27T07:16:21.747Z,949.3
2019-04-27T07:19:29.755Z,949.4
2019-04-27T07:22:35.921Z,949.3
2019-04-27T07:25:43.920Z,949.3
2019-04-27T07:28:50.603Z,949.3
2019-04-27T07:31:56.936Z,949.4
2019-04-27T07:35:05.130Z,949.3
2019-04-27T07:38:11.353Z,949.2
2019-04-27T07:41:19.035Z,949.2
2019-04-27T07:44:29.922Z,949.3
2019-04-27T07:47:36.094Z,949.2
2019-04-27T07:50:43.891Z,949.2
2019-04-27T07:53:50.084Z,949.2
2019-04-27T07:56:56.328Z,949.2
2019-04-27T08:00:04.376Z,949.2
2019-04-27T08:03:11.281Z,949.2
2019-04-27T08:06:19.581Z,949.1
2019-04-27T08:09:25.851Z,949.1
2019-04-27T08:12:33.891Z,949
2019-04-27T08:15:40.947Z,949
2019-04-27T08:18:47.067Z,949
2019-04-27T08:21:56.808Z,949
2019-04-27T08:25:05.024Z,949
2019-04-27T08:28:11.690Z,948.9
2019-04-27T08:31:19.801Z,948.9
2019-04-27T08:34:25.968Z,948.8
2019-04-27T08:37:33.863Z,948.9
2019-04-27T08:40:40.740Z,948.8
2019-04-27T08:43:48.633Z,948.8
2019-04-27T08:46:55.128Z,948.7
2019-04-27T08:50:01.326Z,948.7
2019-04-27T08:53:07.564Z,948.7
2019-04-27T08:56:19.351Z,948.6
2019-04-27T08:59:25.736Z,948.6
2019-04-27T09:02:49.946Z,948.5
2019-04-27T09:05:59.641Z,948.5
2019-04-27T09:09:05.831Z,948.4
2019-04-27T09:12:13.934Z,948.4
2019-04-27T09:15:20.407Z,948.4
2019-04-27T09:18:26.571Z,948.3
2019-04-27T09:21:37.499Z,948.2
2019-04-27T09:24:45.148Z,948.2
2019-04-27T09:27:51.281Z,948.1
2019-04-27T09:30:59.472Z,948.1
2019-04-27T09:34:10.414Z,948
2019-04-27T09:37:22.706Z,948
2019-04-27T09:40:28.871Z,948
2019-04-27T09:43:36.539Z,947.9
2019-04-27T09:46:42.942Z,947.8
2019-04-27T09:49:49.075Z,947.7
2019-04-27T09:52:56.911Z,947.6
2019-04-27T09:56:03.176Z,947.6
2019-04-27T09:59:11.261Z,947.6
2019-04-27T10:02:20.649Z,947.5
2019-04-27T10:05:27.624Z,947.5
2019-04-27T10:08:33.774Z,947.4
2019-04-27T10:11:41.651Z,947.4
2019-04-27T10:14:49.014Z,947.4
2019-04-27T10:17:58.617Z,947.2
2019-04-27T10:21:06.892Z,947.2
2019-04-27T10:24:13.098Z,947.1
2019-04-27T10:27:21.152Z,947
2019-04-27T10:30:27.369Z,947
2019-04-27T10:33:33.536Z,946.9
2019-04-27T10:36:41.548Z,947
2019-04-27T10:39:47.817Z,947
2019-04-27T10:42:55.866Z,946.9
2019-04-27T10:46:02.255Z,946.8
2019-04-27T10:49:08.464Z,946.7
2019-04-27T10:52:14.694Z,946.6
2019-04-27T10:55:20.886Z,946.5
2019-04-27T10:58:28.591Z,946.4
2019-04-27T11:01:36.447Z,946.4
2019-04-27T11:04:42.657Z,946.4
2019-04-27T11:07:50.672Z,946.3
2019-04-27T11:10:57.663Z,946.3
2019-04-27T11:14:03.932Z,946.3
2019-04-27T11:17:11.976Z,946.3
2019-04-27T11:20:18.289Z,946.2
2019-04-27T11:23:26.059Z,946.1
2019-04-27T11:26:32.368Z,946.1
2019-04-27T11:29:38.523Z,946
2019-04-27T11:32:44.729Z,946.1
2019-04-27T11:35:50.928Z,946
2019-04-27T11:38:57.740Z,945.8
2019-04-27T11:42:03.915Z,945.8
2019-04-27T11:45:10.167Z,945.7
2019-04-27T11:48:17.355Z,945.7
2019-04-27T11:51:23.622Z,945.7
2019-04-27T11:54:31.602Z,945.8
2019-04-27T11:57:38.925Z,945.8
2019-04-27T12:00:45.059Z,945.9
2019-04-27T12:03:51.251Z,946
2019-04-27T12:06:57.723Z,946.1
2019-04-27T12:10:05.286Z,946.1
2019-04-27T12:13:11.998Z,946.1
2019-04-27T12:16:20.202Z,946.1
2019-04-27T12:19:28.116Z,946.1
2019-04-27T12:22:34.292Z,946.1
2019-04-27T12:25:40.547Z,946.2
2019-04-27T12:28:47.120Z,946.2
2019-04-27T12:31:53.387Z,946.3
2019-04-27T12:35:01.293Z,946.3
2019-04-27T12:38:07.471Z,946.4
2019-04-27T12:41:13.671Z,946.4
2019-04-27T12:44:19.803Z,946.6
2019-04-27T12:47:27.537Z,947
2019-04-27T12:50:33.666Z,947.2
2019-04-27T12:53:53.691Z,947.4
2019-04-27T12:57:01.390Z,947.2
2019-04-27T13:00:07.812Z,946.9
2019-04-27T13:03:15.862Z,947
2019-04-27T13:06:22.255Z,947
2019-04-27T13:09:28.462Z,946.8
2019-04-27T13:12:36.411Z,946.5
2019-04-27T13:15:42.643Z,946.4
2019-04-27T13:18:50.437Z,946.5
2019-04-27T13:21:57.110Z,946.5
2019-04-27T13:25:03.378Z,946.4
2019-04-27T13:28:11.233Z,946.4
2019-04-27T13:31:17.503Z,946.5
2019-04-27T13:34:23.627Z,946.4
2019-04-27T13:37:29.777Z,946.4
2019-04-27T13:40:36.897Z,946.4
2019-04-27T13:43:42.999Z,946.3
2019-04-27T13:46:49.226Z,946.2
2019-04-27T13:49:57.405Z,946.2
2019-04-27T13:53:03.570Z,946.3
2019-04-27T13:56:13.419Z,946.3
2019-04-27T13:59:19.684Z,946.3
2019-04-27T14:02:35.305Z,946.4
2019-04-27T14:05:41.436Z,946.4
2019-04-27T14:08:47.704Z,946.4
2019-04-27T14:11:53.968Z,946.3
2019-04-27T14:15:00.339Z,946.3
2019-04-27T14:18:08.329Z,946.3
2019-04-27T14:21:14.642Z,946.3
2019-04-27T14:24:32.615Z,946.4
2019-04-27T14:27:41.925Z,946.4
2019-04-27T14:30:49.902Z,946.5
2019-04-27T14:33:56.274Z,946.6
2019-04-27T14:37:04.335Z,946.6
2019-04-27T14:40:10.544Z,946.7
2019-04-27T14:43:16.709Z,946.9
2019-04-27T14:46:24.483Z,946.8
2019-04-27T14:49:34.059Z,947
2019-04-27T14:52:42.070Z,947.2
2019-04-27T14:55:50.078Z,947.3
2019-04-27T14:58:56.225Z,947.7
2019-04-27T15:02:04.244Z,948
2019-04-27T15:05:10.513Z,948.1
2019-04-27T15:08:16.787Z,948.2
2019-04-27T15:11:24.532Z,948.4
2019-04-27T15:14:32.281Z,948.4
2019-04-27T15:17:40.663Z,948.4
2019-04-27T15:20:47.788Z,948.5
2019-04-27T15:23:55.997Z,948.6
2019-04-27T15:27:17.323Z,948.7
2019-04-27T15:30:26.757Z,948.7
2019-04-27T15:33:33.027Z,948.7
2019-04-27T15:36:39.190Z,948.7
2019-04-27T15:39:45.475Z,948.8
2019-04-27T15:42:55.206Z,948.8
2019-04-27T15:46:03.088Z,948.8
2019-04-27T15:49:12.774Z,948.8
2019-04-27T15:52:19.127Z,948.8
2019-04-27T15:55:39.815Z,948.9
2019-04-27T15:58:45.998Z,948.9
2019-04-27T16:01:56.782Z,948.9
2019-04-27T16:05:02.900Z,948.9
2019-04-27T16:08:18.636Z,948.8
2019-04-27T16:11:24.888Z,948.9
2019-04-27T16:14:31.018Z,948.9
2019-04-27T16:17:56.156Z,948.8
2019-04-27T16:21:11.406Z,948.9
2019-04-27T16:24:22.070Z,948.9
2019-04-27T16:27:35.607Z,948.8
2019-04-27T16:30:54.056Z,948.7
2019-04-27T16:34:03.953Z,948.7
2019-04-27T16:37:18.808Z,948.6
2019-04-27T16:40:30.676Z,948.4
2019-04-27T16:43:38.346Z,948.1
2019-04-27T16:46:44.688Z,947.6
2019-04-27T16:49:51.878Z,947.2
2019-04-27T16:53:02.139Z,947.2
2019-04-27T16:58:20.716Z,947.4
2019-04-27T17:01:30.767Z,947.8
2019-04-27T17:04:38.477Z,947.8
2019-04-27T17:07:44.938Z,947.7
2019-04-27T17:10:51.249Z,947.7
2019-04-27T17:14:19.858Z,947.5
2019-04-27T17:17:50.774Z,947.4
2019-04-27T17:21:20.980Z,947.3
2019-04-27T17:24:46.085Z,947.3
2019-04-27T17:28:05.599Z,947.3
2019-04-27T17:31:21.398Z,947.2
2019-04-27T17:34:29.380Z,947.3
2019-04-27T17:37:35.497Z,947.3
2019-04-27T17:40:43.427Z,947.3
2019-04-27T17:43:49.622Z,947.3
2019-04-27T17:46:55.850Z,947.2
2019-04-27T17:50:02.022Z,947.3
2019-04-27T17:53:09.214Z,947.5
2019-04-27T17:56:15.358Z,947.5
2019-04-27T17:59:23.542Z,947.5
2019-04-27T18:02:38.726Z,947.6
2019-04-27T18:05:52.594Z,947.6
2019-04-27T18:09:05.890Z,947.8
2019-04-27T18:12:18.924Z,947.9
2019-04-27T18:15:24.987Z,948
2019-04-27T18:18:31.184Z,948.1
2019-04-27T18:21:39.244Z,948.3
2019-04-27T18:24:45.387Z,948.3
2019-04-27T18:27:51.523Z,948.4
2019-04-27T18:30:57.653Z,948.5
2019-04-27T18:34:08.484Z,948.4
2019-04-27T18:37:26.251Z,948.3
2019-04-27T18:40:34.817Z,948.4
2019-04-27T18:43:57.999Z,948.4
2019-04-27T18:47:05.971Z,948.4
2019-04-27T18:50:15.838Z,948.4
2019-04-27T18:53:25.689Z,948.5
2019-04-27T18:56:41.781Z,948.6
2019-04-27T18:59:49.489Z,948.6
2019-04-27T19:02:55.754Z,948.5
2019-04-27T19:06:04.073Z,948.5
2019-04-27T19:09:10.345Z,948.6
2019-04-27T19:12:18.223Z,948.5
2019-04-27T19:15:29.736Z,948.5
2019-04-27T19:18:37.762Z,948.5
2019-04-27T19:21:45.439Z,948.5
2019-04-27T19:24:53.761Z,948.3
2019-04-27T19:27:59.925Z,948.3
2019-04-27T19:31:08.121Z,948.3
2019-04-27T19:34:14.707Z,948.3
2019-04-27T19:37:25.343Z,948.3
2019-04-27T19:40:33.599Z,948.4
2019-04-27T19:43:39.863Z,948.3
2019-04-27T19:46:45.983Z,948.3
2019-04-27T19:49:54.242Z,948.3
2019-04-27T19:53:00.506Z,948.2
2019-04-27T19:56:06.772Z,948.3
2019-04-27T19:59:12.904Z,948.3
2019-04-27T20:02:21.334Z,948.2
2019-04-27T20:05:27.518Z,948.2
2019-04-27T20:08:35.737Z,948.2
2019-04-27T20:11:43.608Z,948.2
2019-04-27T20:14:51.287Z,948.2
2019-04-27T20:17:57.503Z,948.3
2019-04-27T20:21:05.301Z,948.2
2019-04-27T20:24:12.998Z,948.2
2019-04-27T20:27:20.935Z,948.1
2019-04-27T20:30:27.382Z,948
2019-04-27T20:33:33.648Z,948.2
2019-04-27T20:36:41.470Z,948.1
2019-04-27T20:39:47.713Z,948
2019-04-27T20:42:55.707Z,948
2019-04-27T20:46:02.199Z,948
2019-04-27T20:49:08.459Z,948
2019-04-27T20:52:14.603Z,948
2019-04-27T20:55:22.636Z,947.9
2019-04-27T20:58:28.798Z,947.9
2019-04-27T21:01:36.648Z,947.9
2019-04-27T21:04:43.217Z,947.9
2019-04-27T21:07:51.026Z,947.9
2019-04-27T21:10:58.991Z,947.8
2019-04-27T21:14:07.298Z,947.8
2019-04-27T21:17:15.504Z,947.9
2019-04-27T21:20:24.956Z,947.8
2019-04-27T21:23:32.448Z,947.8
2019-04-27T21:26:38.616Z,947.7
2019-04-27T21:29:47.141Z,947.9
2019-04-27T21:32:54.025Z,947.8
2019-04-27T21:36:02.077Z,947.8
2019-04-27T21:39:08.199Z,947.8
2019-04-27T21:42:16.102Z,947.8
2019-04-27T21:45:22.979Z,947.8
2019-04-27T21:48:29.107Z,947.8
2019-04-27T21:51:36.996Z,947.8
2019-04-27T21:54:46.637Z,947.8
2019-04-27T21:57:55.725Z,947.8
2019-04-27T22:01:01.988Z,947.9
2019-04-27T22:04:08.135Z,947.8
2019-04-27T22:07:14.422Z,947.8
2019-04-27T22:10:22.046Z,947.9
2019-04-27T22:13:28.287Z,947.9
2019-04-27T22:16:36.294Z,947.9
2019-04-27T22:19:42.664Z,947.9
2019-04-27T22:22:48.829Z,947.8
2019-04-27T22:25:56.733Z,947.8
2019-04-27T22:29:02.999Z,947.8
2019-04-27T22:32:09.154Z,947.8
2019-04-27T22:35:15.432Z,947.8
2019-04-27T22:38:24.154Z,947.8
2019-04-27T22:41:32.626Z,947.8
2019-04-27T22:44:38.839Z,947.9
2019-04-27T22:47:45.003Z,947.8
2019-04-27T22:50:52.603Z,947.8
2019-04-27T22:53:58.748Z,947.8
2019-04-27T22:57:06.878Z,947.7
2019-04-27T23:00:13.042Z,947.7
2019-04-27T23:03:20.738Z,947.7
2019-04-27T23:06:27.420Z,947.6
2019-04-27T23:09:33.561Z,947.6
2019-04-27T23:12:41.708Z,947.6
2019-04-27T23:15:48.029Z,947.6
2019-04-27T23:18:56.276Z,947.6
2019-04-27T23:22:02.440Z,947.6
2019-04-27T23:25:12.496Z,947.7
2019-04-27T23:28:18.632Z,947.6
2019-04-27T23:31:26.669Z,947.6
2019-04-27T23:34:32.799Z,947.6
2019-04-27T23:37:39.002Z,947.6
2019-04-27T23:40:45.265Z,947.6
2019-04-27T23:43:51.488Z,947.6
2019-04-27T23:46:57.697Z,947.5
2019-04-27T23:50:03.865Z,947.5
2019-04-27T23:53:11.658Z,947.6
2019-04-27T23:56:18.032Z,947.6
2019-04-27T23:59:26.554Z,947.6
